createdAt,value
2022-08-22T00:03:14.571Z,100064.28
2022-08-22T00:05:23.014Z,100060.92
2022-08-22T00:07:27.637Z,100056.47
2022-08-22T00:09:32.229Z,100055.3
2022-08-22T00:11:36.770Z,100057.94
2022-08-22T00:13:41.293Z,100058.25
2022-08-22T00:15:45.795Z,100055.77
2022-08-22T00:17:50.330Z,100054.67
2022-08-22T00:19:54.845Z,100061.11
2022-08-22T00:21:59.465Z,100061.63
2022-08-22T00:24:04.094Z,100059.68
2022-08-22T00:26:08.685Z,100060.64
2022-08-22T00:28:13.205Z,100063.88
2022-08-22T00:30:17.748Z,100064.7
2022-08-22T00:32:22.271Z,100066.95
2022-08-22T00:34:27.535Z,100063.51
2022-08-22T00:36:32.123Z,100066.27
2022-08-22T00:38:36.706Z,100065.11
2022-08-22T00:40:41.261Z,100067.03
2022-08-22T00:42:45.992Z,100064.7
2022-08-22T00:44:50.713Z,100069.62
2022-08-22T00:46:55.318Z,100066.73
2022-08-22T00:48:59.923Z,100067.91
2022-08-22T00:51:04.426Z,100066.03
2022-08-22T00:53:08.991Z,100063.65
2022-08-22T00:55:13.611Z,100061.64
2022-08-22T00:57:18.315Z,100059.53
2022-08-22T00:59:24.759Z,100051.23
2022-08-22T01:01:29.504Z,100046.61
2022-08-22T01:03:34.244Z,100043.8
2022-08-22T01:05:38.841Z,100049.41
2022-08-22T01:07:43.487Z,100044.66
2022-08-22T01:09:48.085Z,100040.98
2022-08-22T01:11:52.713Z,100038.35
2022-08-22T01:13:57.221Z,100034.97
2022-08-22T01:16:01.769Z,100043.67
2022-08-22T01:18:06.387Z,100037.06
2022-08-22T01:20:10.975Z,100037.59
2022-08-22T01:22:15.419Z,100038.28
2022-08-22T01:24:20.468Z,100039.84
2022-08-22T01:26:29.618Z,100038.16
2022-08-22T01:28:34.177Z,100040.11
2022-08-22T01:30:38.927Z,100042.17
2022-08-22T01:32:43.370Z,100048.16
2022-08-22T01:34:47.953Z,100043.44
2022-08-22T01:36:52.459Z,100045.19
2022-08-22T01:38:57.003Z,100045.89
2022-08-22T01:41:02.068Z,100045.16
2022-08-22T01:43:07.983Z,100042.22
2022-08-22T01:45:12.503Z,100038.09
2022-08-22T01:47:17.227Z,100038.52
2022-08-22T01:49:21.851Z,100039.23
2022-08-22T01:51:26.469Z,100036.52
2022-08-22T01:53:31.062Z,100039.58
2022-08-22T01:55:35.560Z,100037.97
2022-08-22T01:57:40.068Z,100038.7
2022-08-22T01:59:44.751Z,100042.02
2022-08-22T02:01:49.350Z,100041.5
2022-08-22T02:03:54.094Z,100045.67
2022-08-22T02:06:00.153Z,100044.11
2022-08-22T02:08:04.770Z,100040.24
2022-08-22T02:10:09.263Z,100051.84
2022-08-22T02:12:22.920Z,100049.16
2022-08-22T02:14:27.543Z,100052.44
2022-08-22T02:16:32.066Z,100056.18
2022-08-22T02:18:36.665Z,100055.8
2022-08-22T02:20:41.162Z,100056.95
2022-08-22T02:22:45.959Z,100056.25
2022-08-22T02:24:50.536Z,100062.3
2022-08-22T02:26:55.037Z,100059.33
2022-08-22T02:28:59.685Z,100063.33
2022-08-22T02:31:04.216Z,100060.46
2022-08-22T02:33:08.931Z,100058.02
2022-08-22T02:35:13.548Z,100058.77
2022-08-22T02:37:18.135Z,100059.03
2022-08-22T02:39:22.791Z,100061.45
2022-08-22T02:41:27.409Z,100062.75
2022-08-22T02:43:35.595Z,100065.81
2022-08-22T02:45:40.240Z,100061.98
2022-08-22T02:47:44.850Z,100064.77
2022-08-22T02:49:49.738Z,100063.57
2022-08-22T02:51:56.251Z,100066.28
2022-08-22T02:54:00.699Z,100064.59
2022-08-22T02:56:05.394Z,100067.84
2022-08-22T02:58:09.911Z,100068.5
2022-08-22T03:00:33.352Z,100066.83
2022-08-22T03:02:38.099Z,100071.23
2022-08-22T03:04:42.825Z,100065.08
2022-08-22T03:06:47.444Z,100068.61
2022-08-22T03:08:52.101Z,100068.35
2022-08-22T03:10:56.688Z,100064.47
2022-08-22T03:13:01.206Z,100062.05
2022-08-22T03:15:05.831Z,100063.45
2022-08-22T03:17:10.443Z,100064.62
2022-08-22T03:19:19.684Z,100064.88
2022-08-22T03:21:24.400Z,100061.82
2022-08-22T03:23:29.063Z,100062.33
2022-08-22T03:25:33.743Z,100068.38
2022-08-22T03:27:38.365Z,100068.88
2022-08-22T03:29:42.967Z,100070.25
2022-08-22T03:31:47.590Z,100074.02
2022-08-22T03:33:52.123Z,100073.86
2022-08-22T03:35:56.748Z,100071.92
2022-08-22T03:38:01.607Z,100074.29
2022-08-22T03:40:06.314Z,100076.42
2022-08-22T03:42:11.073Z,100076.81
2022-08-22T03:44:15.625Z,100078.67
2022-08-22T03:46:20.159Z,100081.11
2022-08-22T03:48:24.649Z,100080.95
2022-08-22T03:50:29.175Z,100083.54
2022-08-22T03:52:33.714Z,100086.21
2022-08-22T03:54:38.231Z,100085.1
2022-08-22T03:56:42.857Z,100082.23
2022-08-22T03:58:47.481Z,100084.59
2022-08-22T04:00:57.171Z,100082.63
2022-08-22T04:03:02.039Z,100080.06
2022-08-22T04:05:10.192Z,100081.64
2022-08-22T04:07:33.377Z,100078.33
2022-08-22T04:09:39.560Z,100082.16
2022-08-22T04:11:44.055Z,100079.59
2022-08-22T04:13:48.601Z,100070.79
2022-08-22T04:15:53.211Z,100070.7
2022-08-22T04:17:58.918Z,100071.75
2022-08-22T04:20:03.897Z,100074.59
2022-08-22T04:22:08.621Z,100075.7
2022-08-22T04:24:13.238Z,100076.13
2022-08-22T04:26:17.830Z,100079.8
2022-08-22T04:28:22.381Z,100078.55
2022-08-22T04:30:27.005Z,100080.2
2022-08-22T04:32:31.625Z,100081.57
2022-08-22T04:34:36.241Z,100077.66
2022-08-22T04:36:40.833Z,100081.4
2022-08-22T04:38:45.385Z,100084.52
2022-08-22T04:40:49.893Z,100085.61
2022-08-22T04:42:54.493Z,100079.03
2022-08-22T04:44:59.019Z,100079.03
2022-08-22T04:47:03.664Z,100086.61
2022-08-22T04:49:08.283Z,100089.41
2022-08-22T04:51:12.907Z,100090.56
2022-08-22T04:53:17.527Z,100089.11
2022-08-22T04:55:22.252Z,100089.22
2022-08-22T04:57:26.871Z,100088.55
2022-08-22T04:59:34.506Z,100088.11
2022-08-22T05:01:39.327Z,100087.98
2022-08-22T05:03:46.165Z,100095.07
2022-08-22T05:05:50.785Z,100088.66
2022-08-22T05:07:56.675Z,100088.73
2022-08-22T05:10:12.927Z,100088.45
2022-08-22T05:12:17.593Z,100087.32
2022-08-22T05:14:22.170Z,100087.62
2022-08-22T05:16:26.848Z,100086.37
2022-08-22T05:18:31.499Z,100088.13
2022-08-22T05:20:36.137Z,100085.91
2022-08-22T05:22:40.765Z,100091.59
2022-08-22T05:24:45.379Z,100091.42
2022-08-22T05:26:49.903Z,100092.34
2022-08-22T05:28:54.686Z,100085.79
2022-08-22T05:30:59.553Z,100090.47
2022-08-22T05:33:04.149Z,100092.53
2022-08-22T05:35:08.689Z,100094.36
2022-08-22T05:37:13.312Z,100095.42
2022-08-22T05:39:17.932Z,100095.27
2022-08-22T05:41:22.556Z,100094.63
2022-08-22T05:43:27.253Z,100095.1
2022-08-22T05:45:31.795Z,100095.77
2022-08-22T05:47:36.451Z,100097.13
2022-08-22T05:49:41.021Z,100099.82
2022-08-22T05:51:45.518Z,100102.82
2022-08-22T05:53:50.043Z,100103.34
2022-08-22T05:55:54.693Z,100105.93
2022-08-22T05:57:59.527Z,100109.29
2022-08-22T06:00:04.246Z,100111.67
2022-08-22T06:02:09.261Z,100115.09
2022-08-22T06:04:13.981Z,100112.48
2022-08-22T06:06:18.603Z,100110.72
2022-08-22T06:08:23.145Z,100113.23
2022-08-22T06:10:27.763Z,100117.27
2022-08-22T06:12:35.065Z,100116.04
2022-08-22T06:14:40.994Z,100113.5
2022-08-22T06:16:49.919Z,100116.14
2022-08-22T06:18:54.543Z,100120.8
2022-08-22T06:20:59.060Z,100118.58
2022-08-22T06:23:03.677Z,100118.6
2022-08-22T06:25:08.403Z,100118.88
2022-08-22T06:27:13.044Z,100118.66
2022-08-22T06:29:17.754Z,100119.01
2022-08-22T06:31:22.391Z,100120.08
2022-08-22T06:33:27.094Z,100119.26
2022-08-22T06:35:31.818Z,100117.83
2022-08-22T06:37:36.419Z,100121.31
2022-08-22T06:39:41.053Z,100124.36
2022-08-22T06:41:45.751Z,100130.05
2022-08-22T06:43:50.298Z,100125.97
2022-08-22T06:45:54.920Z,100123.61
2022-08-22T06:48:02.362Z,100128.91
2022-08-22T06:50:14.559Z,100131.15
2022-08-22T06:52:19.335Z,100134.74
2022-08-22T06:54:23.963Z,100134.38
2022-08-22T06:56:28.691Z,100133.66
2022-08-22T06:58:35.447Z,100134.8
2022-08-22T07:00:40.142Z,100135.55
2022-08-22T07:02:44.791Z,100132.56
2022-08-22T07:04:49.420Z,100134.14
2022-08-22T07:06:54.034Z,100134.44
2022-08-22T07:08:58.555Z,100129.95
2022-08-22T07:11:09.285Z,100133.67
2022-08-22T07:13:13.839Z,100132.91
2022-08-22T07:15:18.461Z,100133.03
2022-08-22T07:17:23.084Z,100128.1
2022-08-22T07:19:27.708Z,100127.31
2022-08-22T07:21:37.280Z,100125.54
2022-08-22T07:23:43.086Z,100121.16
2022-08-22T07:25:47.686Z,100127.27
2022-08-22T07:27:52.213Z,100126.87
2022-08-22T07:29:56.848Z,100126.63
2022-08-22T07:32:01.575Z,100128.06
2022-08-22T07:34:06.200Z,100127.55
2022-08-22T07:36:10.686Z,100127.97
2022-08-22T07:38:15.336Z,100126.27
2022-08-22T07:40:20.149Z,100128.7
2022-08-22T07:42:30.326Z,100130.63
2022-08-22T07:44:35.032Z,100128.3
2022-08-22T07:46:39.659Z,100128.81
2022-08-22T07:49:09.964Z,100129.53
2022-08-22T07:51:14.656Z,100133.98
2022-08-22T07:53:19.160Z,100127.33
2022-08-22T07:55:23.742Z,100122.77
2022-08-22T07:57:31.030Z,100126.45
2022-08-22T07:59:35.638Z,100127.94
2022-08-22T08:01:40.257Z,100126.92
2022-08-22T08:03:45.097Z,100126.09
2022-08-22T08:05:49.646Z,100128.28
2022-08-22T08:07:54.289Z,100130.16
2022-08-22T08:09:58.957Z,100132.66
2022-08-22T08:12:03.475Z,100128.27
2022-08-22T08:14:08.200Z,100130.19
2022-08-22T08:16:18.246Z,100131.21
2022-08-22T08:18:22.970Z,100131.19
2022-08-22T08:20:27.598Z,100134.78
2022-08-22T08:22:32.318Z,100135.1
2022-08-22T08:24:43.058Z,100133.3
2022-08-22T08:26:50.569Z,100132.72
2022-08-22T08:28:55.061Z,100136.41
2022-08-22T08:30:59.710Z,100136.76
2022-08-22T08:33:27.124Z,100134.94
2022-08-22T08:36:02.139Z,100136.59
2022-08-22T08:38:08.052Z,100134.8
2022-08-22T08:40:12.856Z,100135.22
2022-08-22T08:42:17.650Z,100132.57
2022-08-22T08:44:22.216Z,100132.08
2022-08-22T08:46:27.357Z,100128
2022-08-22T08:48:32.442Z,100130.03
2022-08-22T08:50:37.786Z,100128.73
2022-08-22T08:52:42.563Z,100125.78
2022-08-22T08:54:48.297Z,100126.29
2022-08-22T08:56:55.524Z,100127.13
2022-08-22T08:58:59.980Z,100127.26
2022-08-22T09:01:06.075Z,100131.69
2022-08-22T09:03:10.871Z,100133.34
2022-08-22T09:05:27.585Z,100131.77
2022-08-22T09:07:32.855Z,100135.19
2022-08-22T09:09:41.165Z,100134.08
2022-08-22T09:11:47.970Z,100125.91
2022-08-22T09:13:56.498Z,100125.04
2022-08-22T09:16:06.463Z,100128.67
2022-08-22T09:18:19.268Z,100126.13
2022-08-22T09:20:26.456Z,100126.48
2022-08-22T09:42:32.437Z,100113.78
2022-08-22T09:44:40.844Z,100115.65
2022-08-22T09:46:49.099Z,100121.21
2022-08-22T09:48:54.598Z,100120.25
2022-08-22T09:51:32.093Z,100121.47
2022-08-22T09:53:37.673Z,100119.78
2022-08-22T09:55:42.654Z,100116.58
2022-08-22T09:57:48.203Z,100122.48
2022-08-22T09:59:53.845Z,100119.36
2022-08-22T10:02:02.679Z,100118.55
2022-08-22T10:04:10.000Z,100119.09
2022-08-22T10:06:17.152Z,100119.83
2022-08-22T10:08:27.616Z,100119.4
2022-08-22T10:10:32.209Z,100116.27
2022-08-22T10:12:37.583Z,100119.91
2022-08-22T10:14:52.152Z,100115.04
2022-08-22T10:16:56.702Z,100115.74
2022-08-22T10:19:02.012Z,100114.44
2022-08-22T10:21:09.749Z,100116.88
2022-08-22T10:23:15.701Z,100115.78
2022-08-22T10:25:24.981Z,100109.42
2022-08-22T10:27:32.107Z,100113.81
2022-08-22T10:29:36.631Z,100113.11
2022-08-22T10:32:02.063Z,100118.14
2022-08-22T10:34:18.427Z,100115.11
2022-08-22T10:36:27.455Z,100119.95
2022-08-22T10:38:32.522Z,100122.78
2022-08-22T10:40:49.979Z,100121.94
2022-08-22T10:42:54.889Z,100115.34
2022-08-22T10:45:04.094Z,100118.69
2022-08-22T10:47:09.098Z,100116.46
2022-08-22T10:49:20.583Z,100117.56
2022-08-22T10:51:33.266Z,100116.7
2022-08-22T10:53:40.267Z,100114.8
2022-08-22T10:55:46.678Z,100115.2
2022-08-22T10:57:53.992Z,100114.13
2022-08-22T10:59:59.562Z,100112.8
2022-08-22T11:02:04.367Z,100114.83
2022-08-22T11:04:13.354Z,100113.27
2022-08-22T11:06:17.927Z,100115.94
2022-08-22T11:08:23.170Z,100119.62
2022-08-22T11:10:31.440Z,100118.08
2022-08-22T11:12:42.734Z,100116.89
2022-08-22T11:14:49.200Z,100117.34
2022-08-22T11:16:56.495Z,100117.97
2022-08-22T11:19:04.976Z,100116.69
2022-08-22T11:21:20.286Z,100113.25
2022-08-22T11:23:26.942Z,100114.95
2022-08-22T11:25:40.065Z,100115.78
2022-08-22T11:27:44.695Z,100116.66
2022-08-22T11:29:50.886Z,100115.05
2022-08-22T11:32:05.708Z,100121.25
2022-08-22T11:34:13.072Z,100115.09
2022-08-22T11:36:26.093Z,100120.36
2022-08-22T11:38:37.088Z,100117.47
2022-08-22T11:40:42.810Z,100123.55
2022-08-22T11:43:00.598Z,100125.54
2022-08-22T11:45:08.045Z,100121.77
2022-08-22T11:47:13.183Z,100122.54
2022-08-22T11:49:20.055Z,100122.09
2022-08-22T11:51:35.319Z,100122.23
2022-08-22T11:53:41.414Z,100124.5
2022-08-22T11:55:46.146Z,100124.8
2022-08-22T11:57:52.059Z,100125.41
2022-08-22T11:59:57.156Z,100124.19
2022-08-22T12:02:05.045Z,100126.38
2022-08-22T12:04:14.074Z,100127.19
2022-08-22T12:06:18.942Z,100131.25
2022-08-22T12:08:24.068Z,100126.42
2022-08-22T12:10:28.599Z,100122.27
2022-08-22T12:12:33.209Z,100123.81
2022-08-22T12:14:38.831Z,100128.94
2022-08-22T12:16:48.522Z,100125.36
2022-08-22T12:18:54.114Z,100127.3
2022-08-22T12:20:59.483Z,100120.66
2022-08-22T12:23:05.417Z,100123.14
2022-08-22T12:25:10.873Z,100118.2
2022-08-22T12:27:30.028Z,100118.14
2022-08-22T12:29:45.569Z,100114.11
2022-08-22T12:31:50.822Z,100110.58
2022-08-22T12:33:55.367Z,100110.89
2022-08-22T12:36:00.085Z,100114.68
2022-08-22T12:38:31.995Z,100116.23
2022-08-22T12:40:44.890Z,100113.78
2022-08-22T12:42:51.475Z,100114.88
2022-08-22T12:44:56.361Z,100115.17
2022-08-22T12:47:05.217Z,100113.59
2022-08-22T12:49:12.754Z,100111.63
2022-08-22T12:51:19.370Z,100110.21
2022-08-22T12:53:24.063Z,100114.56
2022-08-22T12:55:28.939Z,100111.49
2022-08-22T12:57:33.757Z,100110.3
2022-08-22T12:59:38.553Z,100110.7
2022-08-22T13:01:44.638Z,100107.69
2022-08-22T13:03:50.349Z,100111.59
2022-08-22T13:06:00.480Z,100109.1
2022-08-22T13:08:06.644Z,100108.36
2022-08-22T13:10:14.164Z,100108.53
2022-08-22T13:12:22.198Z,100111.46
2022-08-22T13:14:27.195Z,100111.98
2022-08-22T13:16:32.017Z,100113.29
2022-08-22T13:18:37.298Z,100109.69
2022-08-22T13:20:48.484Z,100110.59
2022-08-22T13:22:56.742Z,100113.2
2022-08-22T13:25:06.071Z,100115.39
2022-08-22T13:27:15.910Z,100115.17
2022-08-22T13:29:34.974Z,100113.55
2022-08-22T13:31:50.045Z,100111.27
2022-08-22T13:34:01.752Z,100110.84
2022-08-22T13:36:06.653Z,100110.97
2022-08-22T13:38:14.561Z,100111.41
2022-08-22T13:40:27.559Z,100114.09
2022-08-22T13:42:33.601Z,100110.65
2022-08-22T13:44:43.679Z,100111.63
2022-08-22T13:47:14.976Z,100111.41
2022-08-22T13:49:23.984Z,100109.52
2022-08-22T13:51:29.383Z,100113.59
2022-08-22T13:53:35.951Z,100109.86
2022-08-22T13:55:44.166Z,100104.97
2022-08-22T13:57:53.790Z,100107.19
2022-08-22T14:00:07.331Z,100108.22
2022-08-22T14:02:19.067Z,100106.45
2022-08-22T14:04:36.838Z,100108.22
2022-08-22T14:06:44.712Z,100106.73
2022-08-22T14:08:49.571Z,100108.8
2022-08-22T14:11:01.406Z,100107.3
2022-08-22T14:13:10.387Z,100107.63
2022-08-22T14:15:14.906Z,100107.45
2022-08-22T14:17:19.499Z,100102.96
2022-08-22T14:19:28.293Z,100104.2
2022-08-22T14:21:41.368Z,100101.55
2022-08-22T14:23:46.826Z,100100.46
2022-08-22T14:25:52.345Z,100095.63
2022-08-22T14:27:58.307Z,100101.1
2022-08-22T14:30:05.007Z,100098.17
2022-08-22T14:32:12.126Z,100102.89
2022-08-22T14:34:16.952Z,100097.06
2022-08-22T14:36:23.184Z,100093.7
2022-08-22T14:38:31.497Z,100097.2
2022-08-22T14:40:36.283Z,100097.77
2022-08-22T14:42:45.417Z,100101.32
2022-08-22T14:44:51.601Z,100098.69
2022-08-22T14:46:56.356Z,100102.38
2022-08-22T14:49:02.075Z,100104.41
2022-08-22T14:51:09.511Z,100099.98
2022-08-22T14:53:14.123Z,100098.81
2022-08-22T14:55:18.753Z,100101.2
2022-08-22T14:57:23.585Z,100098.7
2022-08-22T14:59:28.225Z,100101.28
2022-08-22T15:01:34.340Z,100098.66
2022-08-22T15:03:43.551Z,100097.8
2022-08-22T15:05:49.126Z,100098.75
2022-08-22T15:07:54.604Z,100099.45
2022-08-22T15:10:05.970Z,100101.64
2022-08-22T15:12:15.289Z,100099.61
2022-08-22T15:14:20.008Z,100103.48
2022-08-22T15:16:24.623Z,100098.95
2022-08-22T15:18:30.069Z,100099.47
2022-08-22T15:20:45.565Z,100101.59
2022-08-22T15:22:56.723Z,100098.19
2022-08-22T15:25:02.945Z,100096.93
2022-08-22T15:27:09.085Z,100099.5
2022-08-22T15:29:14.471Z,100099.28
2022-08-22T15:31:21.732Z,100105.25
2022-08-22T15:33:30.473Z,100099.03
2022-08-22T15:35:39.917Z,100092.6
2022-08-22T15:37:44.534Z,100094.44
2022-08-22T15:39:52.842Z,100095.14
2022-08-22T15:41:58.998Z,100096.84
2022-08-22T15:44:05.227Z,100091.33
2022-08-22T15:46:17.741Z,100091.45
2022-08-22T15:48:22.691Z,100089.67
2022-08-22T15:50:27.823Z,100088.59
2022-08-22T15:52:32.549Z,100091.16
2022-08-22T15:54:41.570Z,100092.2
2022-08-22T15:56:55.356Z,100087.02
2022-08-22T15:59:01.052Z,100093.47
2022-08-22T16:01:20.564Z,100090.27
2022-08-22T16:03:27.119Z,100095.29
2022-08-22T16:05:32.329Z,100096.15
2022-08-22T16:07:36.845Z,100095.02
2022-08-22T16:09:44.309Z,100098.37
2022-08-22T16:11:49.116Z,100096.73
2022-08-22T16:13:58.364Z,100093.24
2022-08-22T16:16:03.731Z,100096.34
2022-08-22T16:18:08.356Z,100096.19
2022-08-22T16:20:21.064Z,100091.94
2022-08-22T16:22:25.600Z,100089.39
2022-08-22T16:24:30.303Z,100093.38
2022-08-22T16:26:40.442Z,100096.8
2022-08-22T16:28:59.354Z,100097.18
2022-08-22T16:31:04.036Z,100101.09
2022-08-22T16:33:19.049Z,100101.1
2022-08-22T16:35:23.728Z,100103.8
2022-08-22T16:37:28.478Z,100097.03
2022-08-22T16:39:33.187Z,100095.44
2022-08-22T16:41:37.873Z,100094.61
2022-08-22T16:43:56.237Z,100090.63
2022-08-22T16:46:00.861Z,100089.34
2022-08-22T16:48:05.894Z,100092.05
2022-08-22T16:50:10.812Z,100092.92
2022-08-22T16:52:16.955Z,100093.97
2022-08-22T16:54:21.492Z,100094.11
2022-08-22T16:56:26.117Z,100096.91
2022-08-22T16:58:58.977Z,100095.59
2022-08-22T17:01:26.209Z,100097.21
2022-08-22T17:03:30.952Z,100100.82
2022-08-22T17:05:35.485Z,100104.47
2022-08-22T17:07:40.009Z,100101.7
2022-08-22T17:09:44.755Z,100106.79
2022-08-22T17:11:49.459Z,100107.5
2022-08-22T17:13:54.101Z,100107.12
2022-08-22T17:15:58.701Z,100109.91
2022-08-22T17:18:13.363Z,100112.39
2022-08-22T17:20:17.886Z,100113.16
2022-08-22T17:22:28.960Z,100115.44
2022-08-22T17:24:35.311Z,100113.47
2022-08-22T17:26:39.937Z,100114.63
2022-08-22T17:28:44.559Z,100114.37
2022-08-22T17:30:49.189Z,100113.73
2022-08-22T17:33:01.081Z,100114.8
2022-08-22T17:35:05.689Z,100113.59
2022-08-22T17:37:10.319Z,100115.17
2022-08-22T17:39:15.144Z,100116.92
2022-08-22T17:41:19.769Z,100113.42
2022-08-22T17:43:25.717Z,100117.66
2022-08-22T17:45:30.443Z,100117.25
2022-08-22T17:47:35.042Z,100111.34
2022-08-22T17:49:39.799Z,100111.89
2022-08-22T17:51:44.406Z,100114.73
2022-08-22T17:53:49.018Z,100114.02
2022-08-22T17:55:53.552Z,100117.61
2022-08-22T17:57:58.321Z,100115.68
2022-08-22T18:00:03.407Z,100118.17
2022-08-22T18:02:08.024Z,100118.44
2022-08-22T18:04:13.989Z,100119.84
2022-08-22T18:06:18.603Z,100123.45
2022-08-22T18:09:13.247Z,100122.92
2022-08-22T18:11:18.655Z,100126.68
2022-08-22T18:13:23.221Z,100125.23
2022-08-22T18:15:27.783Z,100122.67
2022-08-22T18:17:32.401Z,100123.28
2022-08-22T18:19:37.032Z,100126.2
2022-08-22T18:21:41.643Z,100127.55
2022-08-22T18:23:46.426Z,100123.91
2022-08-22T18:25:54.066Z,100121.3
2022-08-22T18:27:59.160Z,100121.62
2022-08-22T18:30:04.435Z,100123.5
2022-08-22T18:32:12.224Z,100124.47
2022-08-22T18:34:17.377Z,100122.17
2022-08-22T18:36:23.222Z,100118.16
2022-08-22T18:38:29.504Z,100123.56
2022-08-22T18:40:34.211Z,100122.29
2022-08-22T18:42:38.819Z,100120.08
2022-08-22T18:44:43.433Z,100125.31
2022-08-22T18:46:48.159Z,100127.75
2022-08-22T18:49:16.272Z,100127.44
2022-08-22T18:51:25.562Z,100130.57
2022-08-22T18:53:30.291Z,100139.2
2022-08-22T18:55:34.842Z,100132.82
2022-08-22T18:57:43.558Z,100132.52
2022-08-22T18:59:48.121Z,100132.97
2022-08-22T19:01:52.992Z,100136.74
2022-08-22T19:03:57.917Z,100138.12
2022-08-22T19:06:02.540Z,100138.54
2022-08-22T19:08:07.252Z,100141.77
2022-08-22T19:10:11.885Z,100142.19
2022-08-22T19:12:16.594Z,100140.66
2022-08-22T19:14:21.229Z,100142.31
2022-08-22T19:16:25.809Z,100138.88
2022-08-22T19:18:30.354Z,100137.44
2022-08-22T19:20:34.975Z,100134.27
2022-08-22T19:22:39.698Z,100131.88
2022-08-22T19:24:44.422Z,100132.13
2022-08-22T19:26:49.150Z,100132.41
2022-08-22T19:28:53.768Z,100134.48
2022-08-22T19:30:58.939Z,100132.33
2022-08-22T19:33:03.518Z,100135.63
2022-08-22T19:35:08.144Z,100131.95
2022-08-22T19:37:34.785Z,100131.3
2022-08-22T19:39:42.214Z,100128.7
2022-08-22T19:41:47.582Z,100125.14
2022-08-22T19:43:52.228Z,100117.72
2022-08-22T19:45:56.855Z,100119.62
2022-08-22T19:48:01.578Z,100118.26
2022-08-22T19:50:07.070Z,100121.15
2022-08-22T19:52:11.754Z,100122.11
2022-08-22T19:54:18.056Z,100122.69
2022-08-22T19:56:22.619Z,100126.75
2022-08-22T19:58:33.895Z,100127.97
2022-08-22T20:00:38.451Z,100125.47
2022-08-22T20:02:43.121Z,100128.83
2022-08-22T20:04:47.663Z,100127.59
2022-08-22T20:06:52.177Z,100124.36
2022-08-22T20:08:56.692Z,100132.59
2022-08-22T20:11:01.237Z,100132.56
2022-08-22T20:13:07.524Z,100129.13
2022-08-22T20:15:12.207Z,100121.34
2022-08-22T20:17:16.819Z,100126.44
2022-08-22T20:19:21.543Z,100122.39
2022-08-22T20:21:26.241Z,100115.72
2022-08-22T20:23:35.903Z,100116.92
2022-08-22T20:25:44.927Z,100115.84
2022-08-22T20:27:49.552Z,100113.44
2022-08-22T20:29:54.250Z,100115.09
2022-08-22T20:32:00.263Z,100116.48
2022-08-22T20:34:04.953Z,100119.92
2022-08-22T20:36:29.365Z,100111.09
2022-08-22T20:38:34.268Z,100111.91
2022-08-22T20:40:59.490Z,100105.05
2022-08-22T20:43:11.713Z,100107.09
2022-08-22T20:45:21.927Z,100101.3
2022-08-22T20:47:45.363Z,100096.19
2022-08-22T20:49:53.187Z,100095.82
2022-08-22T20:51:57.899Z,100094.92
2022-08-22T20:54:15.176Z,100092.78
2022-08-22T20:56:20.262Z,100090.28
2022-08-22T20:58:24.879Z,100090.09
2022-08-22T21:00:29.606Z,100089.64
2022-08-22T21:02:34.221Z,100087.75
2022-08-22T21:04:43.759Z,100091.67
2022-08-22T21:06:48.335Z,100087.33
2022-08-22T21:08:52.880Z,100088.84
2022-08-22T21:10:57.415Z,100089.36
2022-08-22T21:13:02.142Z,100086.68
2022-08-22T21:15:06.604Z,100084.95
2022-08-22T21:17:11.315Z,100081.91
2022-08-22T21:19:15.901Z,100081.5
2022-08-22T21:21:20.529Z,100077.88
2022-08-22T21:23:25.076Z,100072.08
2022-08-22T21:25:29.768Z,100067.83
2022-08-22T21:27:34.386Z,100063.29
2022-08-22T21:29:39.010Z,100059.8
2022-08-22T21:31:43.607Z,100060.72
2022-08-22T21:33:48.158Z,100062.18
2022-08-22T21:35:52.874Z,100064.64
2022-08-22T21:37:59.313Z,100061.58
2022-08-22T21:40:06.728Z,100063.81
2022-08-22T21:42:18.974Z,100066.08
2022-08-22T21:44:23.538Z,100070.61
2022-08-22T21:46:28.164Z,100071.55
2022-08-22T21:48:32.770Z,100070.7
2022-08-22T21:50:37.305Z,100065.94
2022-08-22T21:52:42.024Z,100064.26
2022-08-22T21:54:46.900Z,100061.77
2022-08-22T21:56:51.575Z,100066.06
2022-08-22T21:58:57.366Z,100064.58
2022-08-22T22:01:05.763Z,100065.07
2022-08-22T22:03:18.030Z,100058.84
2022-08-22T22:05:22.544Z,100063.92
2022-08-22T22:07:27.159Z,100065.53
2022-08-22T22:09:31.757Z,100066.03
2022-08-22T22:11:36.257Z,100064.3
2022-08-22T22:13:40.823Z,100065.52
2022-08-22T22:15:45.343Z,100063.07
2022-08-22T22:17:49.963Z,100068.27
2022-08-22T22:19:54.561Z,100070.73
2022-08-22T22:21:59.205Z,100066.66
2022-08-22T22:24:03.826Z,100067.44
2022-08-22T22:26:08.353Z,100060.33
2022-08-22T22:28:12.964Z,100059.67
2022-08-22T22:30:17.729Z,100057.49
2022-08-22T22:32:25.483Z,100058.84
2022-08-22T22:34:30.111Z,100059.43
2022-08-22T22:36:34.783Z,100052.98
2022-08-22T22:38:39.452Z,100057.68
2022-08-22T22:40:44.174Z,100053.54
2022-08-22T22:42:48.766Z,100056.55
2022-08-22T22:44:53.415Z,100053.2
2022-08-22T22:46:58.037Z,100054.69
2022-08-22T22:49:02.762Z,100053.28
2022-08-22T22:51:07.387Z,100054.24
2022-08-22T22:53:11.985Z,100057.53
2022-08-22T22:55:42.689Z,100060.98
2022-08-22T22:57:47.950Z,100059.41
2022-08-22T23:00:02.426Z,100059.22
2022-08-22T23:02:07.143Z,100055.78
2022-08-22T23:04:11.757Z,100056.42
2022-08-22T23:06:16.630Z,100055.16
2022-08-22T23:08:21.311Z,100050.55
2022-08-22T23:10:25.935Z,100045.8
2022-08-22T23:12:30.554Z,100045.64
2022-08-22T23:14:35.323Z,100052.79
2022-08-22T23:16:40.044Z,100049.08
2022-08-22T23:18:44.717Z,100048.56
2022-08-22T23:20:49.477Z,100046.05
2022-08-22T23:22:54.456Z,100048.07
2022-08-22T23:24:59.197Z,100042.5
2022-08-22T23:27:03.922Z,100040.47
2022-08-22T23:29:08.539Z,100037.42
2022-08-22T23:31:13.163Z,100033.92
2022-08-22T23:33:17.782Z,100030.08
2022-08-22T23:35:22.408Z,100027.86
2022-08-22T23:37:26.993Z,100026.96
2022-08-22T23:39:31.542Z,100026.7
2022-08-22T23:41:36.147Z,100026.13
2022-08-22T23:43:40.762Z,100025.77
2022-08-22T23:45:45.271Z,100021.17
2022-08-22T23:47:49.926Z,100024.3
2022-08-22T23:49:54.439Z,100025.23
2022-08-22T23:51:59.003Z,100023.38
2022-08-22T23:54:03.558Z,100028.8
2022-08-22T23:56:09.803Z,100030.03
2022-08-22T23:58:24.340Z,100022.38
